Time;durP1;ratioP1;P1;durP2;ratioP2;P2;SDS_P1;SDS_P2;PMS_P1;PMS_P2;Temp;Humidity;BMP_temperature;BMP_pressure;BME280_temperature;BME280_humidity;BME280_pressure;Samples;Min_cycle;Max_cycle;Signal;HPM_P1;HPM_P2
2022/05/08 00:02:20;;;;;;;15.68;12.10;;;;;;;;;;4942098;28;20031;-73
2022/05/08 00:04:49;;;;;;;16.65;12.30;;;;;;;;;;4930286;28;20048;-73
2022/05/08 00:07:16;;;;;;;16.00;12.95;;;;;;;;;;4934429;29;20046;-73
2022/05/08 00:09:41;;;;;;;16.67;12.73;;;;;;;;;;4926441;29;20070;-73
2022/05/08 00:12:07;;;;;;;17.23;13.40;;;;;;;;;;4926739;29;20138;-74
2022/05/08 00:14:32;;;;;;;19.10;12.25;;;;;;;;;;4931337;29;20039;-73
2022/05/08 00:16:58;;;;;;;19.52;12.63;;;;;;;;;;4926097;29;20047;-74
2022/05/08 00:19:23;;;;;;;18.65;13.63;;;;;;;;;;4925911;29;20032;-74
2022/05/08 00:21:48;;;;;;;15.15;12.55;;;;;;;;;;4926327;29;20592;-73
2022/05/08 00:24:14;;;;;;;20.70;13.77;;;;;;;;;;4926549;29;20039;-73
2022/05/08 00:26:39;;;;;;;17.27;13.20;;;;;;;;;;4930683;28;20032;-73
2022/05/08 00:29:05;;;;;;;17.27;13.65;;;;;;;;;;4925868;29;20052;-74
2022/05/08 00:31:31;;;;;;;16.95;13.25;;;;;;;;;;4926352;29;20027;-73
2022/05/08 00:33:57;;;;;;;21.35;13.98;;;;;;;;;;4926485;29;20039;-73
2022/05/08 00:36:22;;;;;;;18.38;13.32;;;;;;;;;;4925139;29;20036;-73
2022/05/08 00:38:47;;;;;;;17.05;13.23;;;;;;;;;;4926180;29;20102;-73
2022/05/08 00:41:13;;;;;;;19.20;13.70;;;;;;;;;;4925476;29;20099;-73
2022/05/08 00:43:40;;;;;;;18.80;13.93;;;;;;;;;;4941112;28;20035;-73
2022/05/08 00:46:11;;;;;;;18.88;14.35;;;;;;;;;;4925775;29;20095;-73
2022/05/08 00:48:38;;;;;;;17.00;14.18;;;;;;;;;;4926133;29;20070;-73
2022/05/08 00:51:08;;;;;;;20.50;14.68;;;;;;;;;;4926570;29;20047;-72
2022/05/08 00:53:40;;;;;;;19.42;14.85;;;;;;;;;;4925951;29;20031;-72
2022/05/08 00:56:07;;;;;;;18.20;14.77;;;;;;;;;;4925743;29;20564;-72
2022/05/08 00:58:34;;;;;;;20.60;14.70;;;;;;;;;;4930272;29;20039;-72
2022/05/08 01:01:00;;;;;;;19.88;14.88;;;;;;;;;;4925052;29;20063;-72
2022/05/08 01:03:26;;;;;;;23.38;15.25;;;;;;;;;;4926036;29;20878;-72
2022/05/08 01:05:55;;;;;;;22.05;15.90;;;;;;;;;;4925531;29;20058;-73
2022/05/08 01:08:24;;;;;;;23.85;17.67;;;;;;;;;;4925235;29;20031;-72
2022/05/08 01:10:51;;;;;;;33.03;21.05;;;;;;;;;;4930688;29;20477;-72
2022/05/08 01:13:17;;;;;;;30.50;20.60;;;;;;;;;;4933148;28;20039;-72
2022/05/08 01:15:47;;;;;;;30.45;21.05;;;;;;;;;;4925273;29;20048;-72
2022/05/08 01:18:14;;;;;;;28.55;19.58;;;;;;;;;;4925645;29;20066;-72
2022/05/08 01:20:41;;;;;;;31.63;21.65;;;;;;;;;;4935922;29;20050;-72
2022/05/08 01:23:07;;;;;;;27.27;19.42;;;;;;;;;;4934161;28;20035;-72
2022/05/08 01:25:33;;;;;;;33.47;21.90;;;;;;;;;;4927527;29;20950;-72
2022/05/08 01:28:06;;;;;;;32.60;21.15;;;;;;;;;;4925250;29;20110;-72
2022/05/08 01:30:32;;;;;;;35.33;21.70;;;;;;;;;;4926329;29;20082;-73
2022/05/08 01:33:00;;;;;;;33.85;22.73;;;;;;;;;;4921690;28;20054;-73
2022/05/08 01:35:25;;;;;;;34.10;21.90;;;;;;;;;;4924699;29;20039;-73
2022/05/08 01:37:51;;;;;;;34.83;22.80;;;;;;;;;;4921852;29;20119;-73
2022/05/08 01:40:17;;;;;;;36.33;22.63;;;;;;;;;;4932032;28;20488;-73
2022/05/08 01:42:46;;;;;;;37.03;23.90;;;;;;;;;;4926271;29;20035;-73
2022/05/08 01:45:12;;;;;;;31.83;21.60;;;;;;;;;;4940309;28;20042;-73
2022/05/08 01:50:23;;;;;;;32.95;21.55;;;;;;;;;;4924015;29;20039;-73
2022/05/08 01:52:49;;;;;;;36.58;23.52;;;;;;;;;;4924305;29;20050;-73
2022/05/08 01:55:14;;;;;;;31.90;22.02;;;;;;;;;;4943539;29;20050;-72
2022/05/08 01:57:39;;;;;;;34.75;21.85;;;;;;;;;;4929325;28;20039;-72
2022/05/08 02:00:05;;;;;;;31.10;21.63;;;;;;;;;;4923905;29;20048;-73
2022/05/08 02:02:40;;;;;;;35.75;22.13;;;;;;;;;;4925055;29;20123;-72
2022/05/08 02:05:06;;;;;;;35.33;22.48;;;;;;;;;;4928844;29;21031;-72
2022/05/08 02:07:32;;;;;;;35.55;23.00;;;;;;;;;;4924853;29;20035;-72
2022/05/08 02:09:57;;;;;;;31.40;22.52;;;;;;;;;;4923942;29;20043;-72
2022/05/08 02:12:22;;;;;;;36.78;22.05;;;;;;;;;;4924916;29;20528;-72
2022/05/08 02:14:48;;;;;;;36.10;23.92;;;;;;;;;;4928596;29;20106;-72
2022/05/08 02:17:13;;;;;;;35.47;22.55;;;;;;;;;;4926120;29;20115;-72
2022/05/08 02:19:39;;;;;;;36.10;22.50;;;;;;;;;;4943050;28;20389;-72
2022/05/08 02:22:04;;;;;;;37.88;23.10;;;;;;;;;;4931470;29;20082;-73
2022/05/08 02:24:30;;;;;;;39.08;23.38;;;;;;;;;;4924373;29;20047;-72
2022/05/08 02:26:56;;;;;;;39.63;23.83;;;;;;;;;;4931636;29;20424;-72
2022/05/08 02:29:21;;;;;;;35.75;22.85;;;;;;;;;;4938268;28;20039;-73
2022/05/08 02:31:47;;;;;;;39.80;24.52;;;;;;;;;;4924590;29;20070;-72
2022/05/08 02:34:12;;;;;;;36.53;23.67;;;;;;;;;;4924054;29;20047;-72
2022/05/08 02:36:38;;;;;;;34.63;23.20;;;;;;;;;;4927023;29;20043;-72
2022/05/08 02:39:06;;;;;;;41.88;25.20;;;;;;;;;;4924891;28;20035;-72
2022/05/08 02:41:31;;;;;;;40.42;24.50;;;;;;;;;;4929227;29;20031;-72
2022/05/08 02:44:00;;;;;;;34.65;23.33;;;;;;;;;;4925887;28;20421;-72
2022/05/08 02:46:25;;;;;;;40.70;25.92;;;;;;;;;;4924210;29;20513;-72
2022/05/08 02:48:50;;;;;;;45.45;26.60;;;;;;;;;;4922749;29;20036;-72
2022/05/08 02:51:16;;;;;;;44.83;24.35;;;;;;;;;;4923437;29;20043;-72
2022/05/08 02:53:41;;;;;;;39.58;25.10;;;;;;;;;;4926206;29;20087;-72
2022/05/08 02:58:51;;;;;;;43.30;26.80;;;;;;;;;;4928831;28;20038;-72
2022/05/08 03:01:16;;;;;;;39.35;25.60;;;;;;;;;;4923357;29;20032;-72
2022/05/08 03:03:41;;;;;;;40.60;25.17;;;;;;;;;;4927903;29;20703;-72
2022/05/08 03:06:07;;;;;;;37.03;24.70;;;;;;;;;;4938510;28;20032;-72
2022/05/08 03:08:33;;;;;;;37.55;25.48;;;;;;;;;;4923755;29;20039;-73
2022/05/08 03:13:43;;;;;;;40.78;26.23;;;;;;;;;;4923679;29;20098;-72
2022/05/08 03:16:10;;;;;;;40.97;25.27;;;;;;;;;;4938237;28;20058;-73
2022/05/08 03:18:39;;;;;;;36.55;24.83;;;;;;;;;;4922715;29;20047;-72
2022/05/08 03:21:08;;;;;;;35.53;24.63;;;;;;;;;;4928413;28;20066;-72
2022/05/08 03:23:36;;;;;;;37.72;25.40;;;;;;;;;;4938620;28;20043;-72
2022/05/08 03:26:04;;;;;;;40.65;25.77;;;;;;;;;;4937967;28;20138;-72
2022/05/08 03:28:31;;;;;;;39.17;23.77;;;;;;;;;;4923803;29;20094;-73
2022/05/08 03:30:57;;;;;;;36.40;25.48;;;;;;;;;;4922998;28;20051;-72
2022/05/08 03:33:22;;;;;;;34.55;24.02;;;;;;;;;;4923719;29;20124;-72
2022/05/08 03:35:48;;;;;;;38.25;25.55;;;;;;;;;;4923251;29;20051;-72
2022/05/08 03:38:14;;;;;;;40.58;25.55;;;;;;;;;;4923626;29;20126;-72
2022/05/08 03:40:39;;;;;;;38.53;25.27;;;;;;;;;;4922956;29;20034;-72
2022/05/08 03:43:05;;;;;;;39.25;25.63;;;;;;;;;;4927374;29;20885;-72
2022/05/08 03:45:31;;;;;;;41.90;25.08;;;;;;;;;;4931426;29;20036;-72
2022/05/08 03:47:59;;;;;;;40.63;25.83;;;;;;;;;;4922007;29;20489;-72
2022/05/08 03:50:25;;;;;;;43.10;26.23;;;;;;;;;;4939658;28;20051;-72
2022/05/08 03:52:50;;;;;;;43.83;28.00;;;;;;;;;;4934521;28;20506;-71
2022/05/08 03:55:15;;;;;;;45.45;28.05;;;;;;;;;;4922626;29;20078;-73
2022/05/08 03:57:42;;;;;;;43.63;27.55;;;;;;;;;;4937729;28;20134;-72
2022/05/08 04:00:09;;;;;;;42.67;26.73;;;;;;;;;;4922656;29;20048;-73
2022/05/08 04:02:38;;;;;;;45.45;28.13;;;;;;;;;;4926728;29;20039;-73
2022/05/08 04:05:05;;;;;;;46.50;29.08;;;;;;;;;;4940780;28;20460;-72
2022/05/08 04:07:30;;;;;;;50.78;30.48;;;;;;;;;;4926749;29;20042;-71
2022/05/08 04:09:56;;;;;;;49.95;29.55;;;;;;;;;;4926171;29;20047;-71
2022/05/08 04:12:23;;;;;;;48.67;30.73;;;;;;;;;;4926924;29;20385;-72
2022/05/08 04:14:49;;;;;;;49.65;31.00;;;;;;;;;;4941335;28;20043;-72
2022/05/08 04:17:16;;;;;;;49.75;30.27;;;;;;;;;;4925726;29;20080;-72
2022/05/08 04:19:43;;;;;;;44.85;29.17;;;;;;;;;;4925157;29;20031;-71
2022/05/08 04:24:53;;;;;;;49.75;28.55;;;;;;;;;;4926564;29;20130;-72
2022/05/08 04:27:22;;;;;;;51.90;30.20;;;;;;;;;;4925781;29;20619;-72
2022/05/08 04:29:47;;;;;;;46.83;30.05;;;;;;;;;;4925705;29;20032;-71
2022/05/08 04:32:13;;;;;;;52.92;31.70;;;;;;;;;;4925281;29;20509;-71
2022/05/08 04:34:38;;;;;;;55.28;30.67;;;;;;;;;;4926071;29;20053;-71
2022/05/08 04:37:04;;;;;;;50.33;31.10;;;;;;;;;;4927042;29;20039;-72
2022/05/08 04:39:29;;;;;;;48.00;31.00;;;;;;;;;;4937876;28;20063;-72
2022/05/08 04:41:55;;;;;;;45.13;28.67;;;;;;;;;;4926347;29;20467;-72
2022/05/08 04:44:20;;;;;;;44.40;28.23;;;;;;;;;;4926103;29;20031;-72
2022/05/08 04:46:46;;;;;;;44.72;28.08;;;;;;;;;;4927765;29;20523;-72
2022/05/08 04:49:11;;;;;;;43.70;28.83;;;;;;;;;;4929956;28;20031;-72
2022/05/08 04:51:37;;;;;;;42.70;27.83;;;;;;;;;;4925438;29;20568;-72
2022/05/08 04:54:03;;;;;;;53.67;31.33;;;;;;;;;;4925769;29;20259;-71
2022/05/08 04:56:30;;;;;;;47.60;30.52;;;;;;;;;;4931938;29;20040;-71
2022/05/08 04:58:55;;;;;;;51.50;32.47;;;;;;;;;;4925884;29;20051;-72
2022/05/08 05:01:21;;;;;;;54.45;31.05;;;;;;;;;;4929227;29;20036;-72
2022/05/08 05:03:48;;;;;;;44.00;28.48;;;;;;;;;;4932416;29;20043;-72
2022/05/08 05:06:13;;;;;;;46.53;28.95;;;;;;;;;;4925221;29;20078;-72
2022/05/08 05:08:39;;;;;;;49.08;30.65;;;;;;;;;;4925724;29;20040;-72
2022/05/08 05:11:09;;;;;;;51.58;31.23;;;;;;;;;;4929166;29;20038;-72
2022/05/08 05:13:38;;;;;;;54.75;33.30;;;;;;;;;;4924768;29;20359;-71
2022/05/08 05:16:05;;;;;;;48.67;31.58;;;;;;;;;;4925065;29;20127;-71
2022/05/08 05:18:31;;;;;;;47.83;30.23;;;;;;;;;;4925210;29;20059;-71
2022/05/08 05:20:56;;;;;;;45.15;28.98;;;;;;;;;;4924598;29;20153;-72
2022/05/08 05:23:22;;;;;;;50.50;29.58;;;;;;;;;;4937663;29;20450;-71
2022/05/08 05:25:48;;;;;;;38.55;26.13;;;;;;;;;;4932846;29;20071;-71
2022/05/08 05:28:14;;;;;;;48.25;28.88;;;;;;;;;;4925224;29;20039;-71
2022/05/08 05:30:39;;;;;;;48.05;27.75;;;;;;;;;;4924761;29;20094;-71
2022/05/08 05:33:05;;;;;;;44.17;27.30;;;;;;;;;;4929881;29;20117;-71
2022/05/08 05:35:30;;;;;;;41.55;25.52;;;;;;;;;;4925101;29;20067;-70
2022/05/08 05:37:56;;;;;;;43.03;27.88;;;;;;;;;;4909275;29;20031;-70
2022/05/08 05:40:21;;;;;;;47.33;30.10;;;;;;;;;;4939403;28;20079;-71
2022/05/08 05:42:47;;;;;;;44.65;27.23;;;;;;;;;;4936022;29;20087;-70
2022/05/08 05:45:13;;;;;;;38.67;26.02;;;;;;;;;;4932674;28;20036;-70
2022/05/08 05:47:52;;;;;;;36.78;25.42;;;;;;;;;;4928831;29;20144;-71
2022/05/08 05:50:19;;;;;;;44.65;28.45;;;;;;;;;;4931376;28;20031;-70
2022/05/08 05:52:45;;;;;;;41.45;26.83;;;;;;;;;;4931142;29;20059;-70
2022/05/08 05:55:11;;;;;;;31.63;22.20;;;;;;;;;;4929802;28;20048;-72
2022/05/08 05:57:37;;;;;;;37.35;26.15;;;;;;;;;;4935281;28;20035;-72
2022/05/08 06:00:11;;;;;;;40.88;27.20;;;;;;;;;;4926039;28;20059;-73
2022/05/08 06:02:43;;;;;;;37.40;24.52;;;;;;;;;;4925536;29;20135;-71
2022/05/08 06:05:10;;;;;;;36.10;24.60;;;;;;;;;;4932338;29;20057;-72
2022/05/08 06:07:37;;;;;;;35.25;23.27;;;;;;;;;;4923809;29;20040;-72
2022/05/08 06:10:05;;;;;;;36.58;26.00;;;;;;;;;;4921176;29;20095;-72
2022/05/08 06:12:31;;;;;;;35.45;24.63;;;;;;;;;;4937238;28;20100;-72
2022/05/08 06:14:56;;;;;;;41.10;26.88;;;;;;;;;;4937178;28;20102;-71
2022/05/08 06:17:22;;;;;;;34.67;25.15;;;;;;;;;;4926972;29;20071;-72
2022/05/08 06:19:47;;;;;;;37.35;24.27;;;;;;;;;;4922298;29;20035;-71
2022/05/08 06:26:00;;;;;;;33.90;23.45;;;;;;;;;;4933511;29;20051;-71
2022/05/08 06:28:25;;;;;;;30.90;22.83;;;;;;;;;;4928752;29;20051;-71
2022/05/08 06:30:50;;;;;;;38.65;26.25;;;;;;;;;;4923920;29;20039;-71
2022/05/08 06:33:16;;;;;;;34.78;24.90;;;;;;;;;;4924609;29;20481;-71
2022/05/08 06:35:41;;;;;;;38.38;26.80;;;;;;;;;;4924534;29;20048;-71
2022/05/08 06:38:11;;;;;;;36.03;25.13;;;;;;;;;;4923838;29;20099;-71
2022/05/08 06:40:40;;;;;;;42.97;26.40;;;;;;;;;;4923590;29;20135;-71
2022/05/08 06:43:09;;;;;;;37.47;27.25;;;;;;;;;;4938403;28;20091;-71
2022/05/08 06:45:35;;;;;;;41.67;25.77;;;;;;;;;;4924150;29;20032;-72
2022/05/08 06:48:05;;;;;;;36.03;25.42;;;;;;;;;;4924113;29;20044;-71
2022/05/08 06:50:31;;;;;;;31.65;23.40;;;;;;;;;;4927946;29;20478;-71
2022/05/08 06:52:56;;;;;;;36.38;24.73;;;;;;;;;;4935909;29;20035;-71
2022/05/08 06:55:22;;;;;;;35.25;21.73;;;;;;;;;;4925077;29;20504;-71
2022/05/08 06:57:47;;;;;;;36.78;24.33;;;;;;;;;;4923608;29;20043;-71
2022/05/08 07:02:57;;;;;;;28.67;21.55;;;;;;;;;;4933067;28;20039;-71
2022/05/08 07:05:23;;;;;;;31.67;20.35;;;;;;;;;;4924054;29;20039;-71
2022/05/08 07:07:48;;;;;;;27.50;18.95;;;;;;;;;;4923945;29;20024;-72
2022/05/08 07:10:14;;;;;;;24.25;18.15;;;;;;;;;;4923782;29;21362;-72
2022/05/08 07:12:39;;;;;;;29.00;19.45;;;;;;;;;;4934371;29;20035;-72
2022/05/08 07:15:05;;;;;;;26.77;19.45;;;;;;;;;;4932869;29;20043;-71
2022/05/08 07:17:31;;;;;;;26.20;17.98;;;;;;;;;;4925836;29;20035;-71
2022/05/08 07:19:57;;;;;;;24.25;17.23;;;;;;;;;;4942576;28;20040;-73
2022/05/08 07:22:23;;;;;;;24.65;18.65;;;;;;;;;;4928186;29;20090;-72
2022/05/08 07:24:48;;;;;;;23.08;18.20;;;;;;;;;;4931746;29;20047;-72
2022/05/08 07:27:14;;;;;;;26.42;18.65;;;;;;;;;;4928922;29;20101;-72
2022/05/08 07:29:43;;;;;;;23.77;17.75;;;;;;;;;;4930025;28;20109;-72
2022/05/08 07:32:09;;;;;;;22.92;18.00;;;;;;;;;;4928229;29;20040;-72
2022/05/08 07:37:18;;;;;;;19.50;16.05;;;;;;;;;;4931503;29;20035;-71
2022/05/08 07:39:44;;;;;;;20.67;16.38;;;;;;;;;;4928843;29;20392;-71
2022/05/08 07:42:09;;;;;;;21.42;16.23;;;;;;;;;;4927641;29;20154;-72
2022/05/08 07:44:35;;;;;;;16.98;14.07;;;;;;;;;;4934676;29;20047;-72
2022/05/08 07:47:01;;;;;;;18.98;15.15;;;;;;;;;;4931358;28;20484;-72
2022/05/08 07:49:26;;;;;;;23.48;15.38;;;;;;;;;;4929670;29;20047;-72
2022/05/08 07:51:52;;;;;;;20.60;16.02;;;;;;;;;;4933457;29;20058;-72
2022/05/08 07:54:18;;;;;;;19.05;15.43;;;;;;;;;;4937472;29;20039;-72
2022/05/08 07:57:27;;;;;;;19.20;14.15;;;;;;;;;;4940154;29;20452;-72
2022/05/08 07:59:52;;;;;;;19.80;15.13;;;;;;;;;;4929399;29;20047;-71
2022/05/08 08:02:18;;;;;;;18.60;14.15;;;;;;;;;;4926983;29;20439;-72
2022/05/08 08:05:11;;;;;;;14.15;12.50;;;;;;;;;;4945517;29;20031;-72
2022/05/08 08:07:37;;;;;;;17.05;13.48;;;;;;;;;;4932067;29;20036;-71
2022/05/08 08:10:06;;;;;;;17.63;14.40;;;;;;;;;;4926618;29;20040;-72
2022/05/08 08:12:32;;;;;;;20.52;14.48;;;;;;;;;;4944678;28;20035;-72
2022/05/08 08:14:59;;;;;;;18.88;13.75;;;;;;;;;;4933525;29;20166;-71
2022/05/08 08:17:26;;;;;;;16.73;13.57;;;;;;;;;;4927894;29;20123;-71
2022/05/08 08:19:52;;;;;;;20.73;12.65;;;;;;;;;;4937110;28;20047;-72
2022/05/08 08:26:05;;;;;;;15.20;11.57;;;;;;;;;;4935407;29;20038;-71
2022/05/08 08:28:31;;;;;;;15.63;12.25;;;;;;;;;;4925885;29;20039;-71
2022/05/08 08:30:56;;;;;;;14.32;11.35;;;;;;;;;;4927652;29;20048;-72
2022/05/08 08:33:22;;;;;;;16.00;11.00;;;;;;;;;;4931208;29;20063;-71
2022/05/08 08:35:49;;;;;;;13.15;10.88;;;;;;;;;;4936263;29;20044;-70
2022/05/08 08:38:15;;;;;;;17.45;12.18;;;;;;;;;;4937734;29;20054;-71
2022/05/08 08:40:42;;;;;;;12.23;10.90;;;;;;;;;;4930591;29;21045;-71
2022/05/08 08:43:11;;;;;;;13.25;9.70;;;;;;;;;;4936362;29;20046;-71
2022/05/08 08:48:32;;;;;;;11.95;10.50;;;;;;;;;;4930471;28;20038;-71
2022/05/08 08:51:00;;;;;;;11.93;9.82;;;;;;;;;;4930472;29;20051;-72
2022/05/08 08:53:27;;;;;;;15.48;10.70;;;;;;;;;;4936596;28;20038;-71
2022/05/08 08:55:53;;;;;;;12.80;10.18;;;;;;;;;;4936289;29;20036;-72
2022/05/08 08:58:20;;;;;;;14.48;9.40;;;;;;;;;;4939554;28;20035;-72
2022/05/08 09:00:47;;;;;;;11.32;9.82;;;;;;;;;;4933406;29;20142;-71
2022/05/08 09:03:29;;;;;;;10.25;9.05;;;;;;;;;;4935666;29;20047;-72
2022/05/08 09:05:59;;;;;;;11.65;10.43;;;;;;;;;;4936370;29;20051;-71
2022/05/08 09:08:26;;;;;;;11.93;9.50;;;;;;;;;;4932815;29;20067;-71
2022/05/08 09:10:54;;;;;;;11.07;9.25;;;;;;;;;;4931720;29;20042;-71
2022/05/08 09:13:22;;;;;;;14.57;12.30;;;;;;;;;;4925434;29;20087;-70
2022/05/08 09:15:48;;;;;;;15.00;11.23;;;;;;;;;;4925400;29;20126;-71
2022/05/08 09:18:13;;;;;;;14.43;10.88;;;;;;;;;;4932288;29;20130;-71
2022/05/08 09:20:43;;;;;;;12.38;9.85;;;;;;;;;;4925350;29;20044;-71
2022/05/08 09:23:14;;;;;;;14.23;12.02;;;;;;;;;;4924750;29;20051;-71
2022/05/08 09:26:00;;;;;;;11.60;10.13;;;;;;;;;;4924965;29;20043;-70
2022/05/08 09:28:30;;;;;;;20.42;18.27;;;;;;;;;;4925726;29;20039;-71
2022/05/08 09:31:01;;;;;;;9.80;8.80;;;;;;;;;;4925280;29;20105;-70
2022/05/08 09:33:47;;;;;;;12.30;8.88;;;;;;;;;;4926188;29;20042;-70
2022/05/08 09:36:21;;;;;;;9.93;7.82;;;;;;;;;;4934424;29;20572;-71
2022/05/08 09:38:47;;;;;;;8.82;7.93;;;;;;;;;;4928084;29;20047;-70
2022/05/08 09:41:17;;;;;;;10.95;7.38;;;;;;;;;;4926443;29;20035;-71
2022/05/08 09:43:43;;;;;;;9.90;7.28;;;;;;;;;;4925282;29;20066;-71
2022/05/08 09:46:09;;;;;;;11.18;7.70;;;;;;;;;;4929087;29;20110;-71
2022/05/08 09:48:35;;;;;;;8.20;7.38;;;;;;;;;;4939169;28;20031;-71
2022/05/08 09:51:09;;;;;;;7.93;7.18;;;;;;;;;;4931858;29;20432;-71
2022/05/08 09:53:37;;;;;;;9.57;7.10;;;;;;;;;;4924885;29;20043;-71
2022/05/08 09:56:05;;;;;;;8.57;7.65;;;;;;;;;;4932105;29;20062;-71
2022/05/08 09:58:32;;;;;;;11.60;9.38;;;;;;;;;;4923962;29;20127;-70
2022/05/08 10:01:00;;;;;;;12.85;9.55;;;;;;;;;;4923706;29;20036;-71
2022/05/08 10:03:27;;;;;;;9.63;8.20;;;;;;;;;;4925106;29;20119;-71
2022/05/08 10:05:53;;;;;;;8.52;7.63;;;;;;;;;;4924749;29;20094;-71
2022/05/08 10:08:25;;;;;;;10.38;9.10;;;;;;;;;;4924469;29;20999;-71
2022/05/08 10:14:00;;;;;;;11.77;9.18;;;;;;;;;;4933958;29;20051;-71
2022/05/08 10:16:47;;;;;;;15.03;10.63;;;;;;;;;;4924268;29;20032;-71
2022/05/08 10:19:22;;;;;;;9.45;8.45;;;;;;;;;;4927564;29;20047;-71
2022/05/08 10:24:27;;;;;;;9.32;8.38;;;;;;;;;;4924264;29;21026;-71
2022/05/08 10:27:17;;;;;;;10.00;8.25;;;;;;;;;;4924544;29;20051;-71
2022/05/08 10:29:52;;;;;;;9.70;8.45;;;;;;;;;;4937953;28;20083;-71
2022/05/08 10:32:33;;;;;;;9.65;8.73;;;;;;;;;;4924658;29;20632;-71
2022/05/08 10:35:13;;;;;;;12.25;8.85;;;;;;;;;;4923834;29;20048;-71
2022/05/08 10:37:42;;;;;;;11.80;10.00;;;;;;;;;;4923498;29;20441;-71
2022/05/08 10:40:21;;;;;;;11.88;10.23;;;;;;;;;;4925091;29;20142;-71
2022/05/08 10:42:47;;;;;;;14.32;12.02;;;;;;;;;;4930393;29;20047;-71
2022/05/08 10:45:34;;;;;;;16.48;12.20;;;;;;;;;;4932337;28;20051;-71
2022/05/08 10:48:08;;;;;;;13.02;11.25;;;;;;;;;;4923485;28;20035;-71
2022/05/08 10:50:38;;;;;;;15.15;12.27;;;;;;;;;;4927594;28;20163;-71
2022/05/08 10:53:04;;;;;;;14.77;12.57;;;;;;;;;;4936217;29;20038;-71
2022/05/08 10:55:30;;;;;;;18.67;13.77;;;;;;;;;;4925242;28;20040;-71
2022/05/08 10:57:56;;;;;;;22.52;15.02;;;;;;;;;;4921505;29;20059;-71
2022/05/08 11:00:31;;;;;;;18.33;14.50;;;;;;;;;;4924273;29;20035;-71
2022/05/08 11:02:58;;;;;;;16.92;14.10;;;;;;;;;;4926219;29;20098;-71
2022/05/08 11:05:27;;;;;;;17.08;13.98;;;;;;;;;;4932468;28;20066;-71
2022/05/08 11:08:00;;;;;;;18.10;14.50;;;;;;;;;;4932052;29;20591;-71
2022/05/08 11:10:31;;;;;;;20.10;15.00;;;;;;;;;;4931495;28;20043;-71
2022/05/08 11:13:04;;;;;;;17.88;14.30;;;;;;;;;;4928650;28;20237;-71
2022/05/08 11:15:35;;;;;;;17.85;13.05;;;;;;;;;;4930861;29;20042;-72
2022/05/08 11:18:06;;;;;;;14.95;11.55;;;;;;;;;;4931595;29;20042;-71
2022/05/08 11:20:33;;;;;;;15.60;10.00;;;;;;;;;;4930796;28;20412;-72
2022/05/08 11:22:59;;;;;;;11.90;10.60;;;;;;;;;;4932027;28;20076;-72
2022/05/08 11:25:24;;;;;;;10.40;9.18;;;;;;;;;;4944184;28;20075;-72
2022/05/08 11:27:51;;;;;;;11.40;10.20;;;;;;;;;;4928861;29;20039;-72
2022/05/08 11:30:26;;;;;;;10.73;9.57;;;;;;;;;;4927151;29;20633;-72
2022/05/08 11:38:20;;;;;;;10.88;9.40;;;;;;;;;;4932125;29;21069;-72
2022/05/08 11:40:45;;;;;;;10.52;8.30;;;;;;;;;;4920517;29;20941;-72
2022/05/08 11:43:39;;;;;;;10.98;8.35;;;;;;;;;;4938769;28;20048;-72
2022/05/08 11:46:05;;;;;;;8.70;7.72;;;;;;;;;;4926988;29;20105;-72
2022/05/08 11:48:32;;;;;;;10.90;7.75;;;;;;;;;;4927411;29;20040;-72
2022/05/08 11:50:58;;;;;;;10.30;7.88;;;;;;;;;;4928417;29;20118;-72
2022/05/08 11:53:23;;;;;;;9.20;8.30;;;;;;;;;;4930539;29;20038;-71
2022/05/08 11:55:49;;;;;;;10.07;9.02;;;;;;;;;;4925367;28;20044;-72
2022/05/08 11:58:30;;;;;;;11.45;9.07;;;;;;;;;;4920095;29;20115;-72
2022/05/08 12:00:56;;;;;;;9.95;8.98;;;;;;;;;;4920357;29;20106;-71
2022/05/08 12:03:30;;;;;;;12.43;9.98;;;;;;;;;;4920511;29;20607;-72
2022/05/08 12:06:15;;;;;;;14.38;10.80;;;;;;;;;;4921042;29;20050;-72
2022/05/08 12:08:41;;;;;;;12.18;10.90;;;;;;;;;;4923970;29;20058;-71
2022/05/08 12:11:07;;;;;;;13.68;11.00;;;;;;;;;;4925063;28;20047;-71
2022/05/08 12:14:22;;;;;;;11.95;10.60;;;;;;;;;;4921605;29;20537;-71
2022/05/08 12:17:01;;;;;;;11.38;10.18;;;;;;;;;;4917228;29;20048;-71
2022/05/08 12:19:26;;;;;;;12.18;10.05;;;;;;;;;;4922875;29;20051;-72
2022/05/08 12:21:54;;;;;;;35.63;24.73;;;;;;;;;;4924854;28;20027;-71
2022/05/08 12:24:20;;;;;;;32.40;22.02;;;;;;;;;;4924573;29;20047;-72
2022/05/08 12:26:46;;;;;;;14.52;11.05;;;;;;;;;;4925233;29;20059;-72
2022/05/08 12:29:16;;;;;;;10.40;9.15;;;;;;;;;;4926171;29;20036;-72
2022/05/08 12:31:41;;;;;;;14.00;9.20;;;;;;;;;;4928020;29;20067;-71
2022/05/08 12:34:10;;;;;;;12.20;9.10;;;;;;;;;;4930570;29;20156;-71
2022/05/08 12:36:36;;;;;;;10.05;9.05;;;;;;;;;;4934548;29;20050;-72
2022/05/08 12:39:01;;;;;;;11.18;8.55;;;;;;;;;;4934081;29;20031;-71
2022/05/08 12:41:27;;;;;;;10.93;8.35;;;;;;;;;;4931738;29;20047;-71
2022/05/08 12:43:52;;;;;;;12.98;10.00;;;;;;;;;;4937558;29;20039;-72
2022/05/08 12:46:17;;;;;;;12.02;9.57;;;;;;;;;;4950781;28;20039;-72
2022/05/08 12:48:43;;;;;;;12.35;9.80;;;;;;;;;;4935694;29;20034;-71
2022/05/08 12:51:12;;;;;;;13.00;9.75;;;;;;;;;;4936856;28;20043;-71
2022/05/08 12:53:41;;;;;;;11.55;9.07;;;;;;;;;;4931379;29;20027;-71
2022/05/08 12:56:06;;;;;;;11.82;9.35;;;;;;;;;;4936556;29;20063;-71
2022/05/08 13:01:16;;;;;;;11.43;8.52;;;;;;;;;;4935012;28;20126;-70
2022/05/08 13:03:42;;;;;;;9.07;7.30;;;;;;;;;;4934454;29;20399;-70
2022/05/08 13:06:07;;;;;;;10.07;7.95;;;;;;;;;;4932531;29;20047;-70
2022/05/08 13:08:33;;;;;;;11.50;8.38;;;;;;;;;;4933119;29;20991;-70
2022/05/08 13:11:02;;;;;;;12.65;9.23;;;;;;;;;;4944936;28;20408;-70
2022/05/08 13:13:31;;;;;;;23.02;17.42;;;;;;;;;;4935504;28;20043;-71
2022/05/08 13:15:57;;;;;;;15.95;11.68;;;;;;;;;;4932037;29;20686;-70
2022/05/08 13:18:23;;;;;;;16.42;11.13;;;;;;;;;;4930848;29;20039;-70
2022/05/08 13:20:48;;;;;;;15.77;12.43;;;;;;;;;;4928714;29;20035;-71
2022/05/08 13:23:13;;;;;;;13.13;10.25;;;;;;;;;;4930161;29;20042;-71
2022/05/08 13:25:39;;;;;;;9.50;7.63;;;;;;;;;;4930735;28;20036;-71
2022/05/08 13:28:04;;;;;;;10.82;8.57;;;;;;;;;;4930894;28;20071;-70
2022/05/08 13:30:30;;;;;;;12.93;7.22;;;;;;;;;;4932237;28;20039;-71
2022/05/08 13:32:56;;;;;;;9.07;7.32;;;;;;;;;;4932603;29;20035;-70
2022/05/08 13:35:22;;;;;;;14.27;8.88;;;;;;;;;;4930955;29;20048;-70
2022/05/08 13:37:47;;;;;;;11.13;8.15;;;;;;;;;;4931743;28;20032;-70
2022/05/08 13:40:13;;;;;;;10.02;8.00;;;;;;;;;;4930932;29;20699;-70
2022/05/08 13:42:38;;;;;;;13.98;8.70;;;;;;;;;;4932140;29;20031;-70
2022/05/08 13:45:04;;;;;;;12.32;8.65;;;;;;;;;;4930604;29;20501;-70
2022/05/08 13:47:30;;;;;;;9.13;7.40;;;;;;;;;;4931104;29;20031;-70
2022/05/08 13:49:55;;;;;;;12.73;8.65;;;;;;;;;;4932615;29;20165;-70
2022/05/08 13:52:24;;;;;;;8.25;6.47;;;;;;;;;;4931824;29;20512;-70
2022/05/08 13:54:50;;;;;;;14.13;8.82;;;;;;;;;;4935333;29;20082;-70
2022/05/08 13:57:16;;;;;;;16.20;10.00;;;;;;;;;;4929211;29;20040;-70
2022/05/08 13:59:41;;;;;;;13.27;9.48;;;;;;;;;;4931906;29;20039;-70
2022/05/08 14:02:07;;;;;;;9.32;7.32;;;;;;;;;;4933670;29;20047;-70
2022/05/08 14:04:33;;;;;;;10.20;6.88;;;;;;;;;;4931220;29;20028;-70
2022/05/08 14:06:58;;;;;;;7.45;6.10;;;;;;;;;;4932553;29;20058;-70
2022/05/08 14:09:23;;;;;;;7.00;6.30;;;;;;;;;;4932655;28;20817;-70
2022/05/08 14:11:52;;;;;;;11.52;6.57;;;;;;;;;;4951028;28;20767;-70
2022/05/08 14:14:18;;;;;;;8.77;7.07;;;;;;;;;;4932313;29;20043;-70
2022/05/08 14:16:43;;;;;;;7.97;6.70;;;;;;;;;;4936783;28;20031;-70
2022/05/08 14:19:09;;;;;;;6.95;6.22;;;;;;;;;;4935279;28;20505;-70
2022/05/08 14:21:34;;;;;;;6.38;5.40;;;;;;;;;;4933012;29;20481;-70
2022/05/08 14:23:59;;;;;;;7.10;6.05;;;;;;;;;;4934977;29;20039;-70
2022/05/08 14:26:25;;;;;;;6.07;5.55;;;;;;;;;;4935139;29;20051;-70
2022/05/08 14:28:50;;;;;;;9.75;7.15;;;;;;;;;;4934160;29;20039;-70
2022/05/08 14:37:25;;;;;;;9.35;5.30;;;;;;;;;;4932449;29;20082;-70
2022/05/08 14:39:51;;;;;;;6.18;5.53;;;;;;;;;;4933987;29;20039;-70
2022/05/08 14:42:16;;;;;;;7.05;5.80;;;;;;;;;;4925853;29;20152;-71
2022/05/08 14:44:42;;;;;;;6.88;5.75;;;;;;;;;;4928811;29;20044;-71
2022/05/08 14:47:07;;;;;;;6.85;5.43;;;;;;;;;;4924110;29;20120;-70
2022/05/08 14:49:32;;;;;;;6.10;5.50;;;;;;;;;;4929015;29;20392;-71
2022/05/08 14:51:58;;;;;;;6.95;5.72;;;;;;;;;;4926149;29;20047;-70
2022/05/08 14:54:23;;;;;;;6.10;5.40;;;;;;;;;;4925305;29;20131;-71
2022/05/08 14:56:49;;;;;;;6.75;5.30;;;;;;;;;;4930545;29;20038;-71
2022/05/08 14:59:14;;;;;;;6.00;5.40;;;;;;;;;;4930655;29;20503;-71
2022/05/08 15:01:39;;;;;;;6.72;5.75;;;;;;;;;;4928103;28;20051;-71
2022/05/08 15:04:05;;;;;;;7.85;5.38;;;;;;;;;;4927899;29;20038;-71
2022/05/08 15:06:30;;;;;;;14.15;6.63;;;;;;;;;;4925956;29;20067;-71
2022/05/08 15:08:59;;;;;;;8.52;5.25;;;;;;;;;;4927042;29;20045;-71
2022/05/08 15:11:24;;;;;;;5.80;4.72;;;;;;;;;;4926253;29;20042;-70
2022/05/08 15:13:50;;;;;;;6.50;5.07;;;;;;;;;;4929709;29;20032;-71